Ste Anne De Bell 1

CWVQ · Quebec, Kanada

6. Oktober 2022

Uhrzeit Code Wetter Temp. Sichtweite Wolkendecke Wind METAR/SPECI
17:00
V
21 °C 30 mi 11.000 ft 220° 220° 12 kt METAR CYUL 062100Z 22012KT 30SM BKN110 OVC240 21/11 A2986 RMK AC7CI1 SLP114 DENSITY ALT 1000FT
16:00
V
22 °C 30 mi 18.000 ft 210° 210° 7 kt METAR CYUL 062000Z 21007KT 30SM SCT120 BKN180 OVC250 22/10 A2987 RMK AC3AC4CI1 SLP116 DENSITY ALT 1000FT
15:00
V
22 °C 30 mi 24.000 ft 220° 220° 12 kt METAR CYUL 061900Z 22012KT 30SM FEW160 BKN240 22/09 A2987 RMK AC1CI5 SLP118 DENSITY ALT 1100FT
14:00
V
21 °C 30 mi 25.000 ft 230° 230° 11 kt METAR CYUL 061800Z 23011KT 30SM FEW170 BKN250 21/10 A2988 RMK AC2CI5 SLP121 DENSITY ALT 900FT
13:00
V
19 °C 30 mi 25.000 ft 220° 220° 7 kt METAR CYUL 061700Z 22007KT 30SM FEW180 BKN250 19/11 A2990 RMK AC1CI5 SLP129 DENSITY ALT 700FT
12:00
V
18 °C 30 mi 25.000 ft 210° 210° 9 kt METAR CYUL 061600Z 21009KT 30SM FEW180 BKN250 18/11 A2991 RMK AC1CI6 AC TR CC ASOCTD SLP132 DENSITY ALT 500FT
11:00
V
16 °C 15 mi 25.000 ft 210° 210° 8 kt METAR CYUL 061500Z 21008KT 15SM FEW180 BKN250 16/12 A2992 RMK AC1CI6 AC TR SLP135 DENSITY ALT 400FT
10:00
V
15 °C 30 mi 25.000 ft 200° 200° 7 kt METAR CYUL 061400Z 20007KT 30SM FEW180 BKN250 15/11 A2992 RMK AC1CI6 AC TR SLP136 DENSITY ALT 200FT
09:00
V
13 °C 30 mi 25.000 ft 230° 230° 8 kt METAR CYUL 061300Z 23008KT 30SM FEW160 BKN250 13/10 A2992 RMK AC1CI4 SLP136
08:00
V
12 °C 30 mi - 240° 240° 8 kt METAR CYUL 061200Z 24008KT 30SM SCT250 12/09 A2992 RMK CI4 SLP135
07:00
V
10 °C 15 mi - 250° 250° 7 kt METAR CYUL 061100Z 25007KT 15SM SCT250 10/08 A2992 RMK CI4 SLP134
06:00
V
10 °C 15 mi 25.000 ft 230° 230° 6 kt METAR CYUL 061000Z 23006KT 15SM BKN250 10/08 A2992 RMK CI6 SLP133
05:00
V
11 °C 15 mi 25.000 ft 230° 230° 4 kt METAR CYUL 060900Z 23004KT 15SM BKN250 11/08 A2992 RMK CI5 SLP134
04:00
V
11 °C 15 mi - 230° 230° 6 kt METAR CYUL 060800Z 23006KT 15SM SCT250 11/08 A2992 RMK CI3 SLP134
03:00
V
11 °C 15 mi - 230° 230° 7 kt METAR CYUL 060700Z 23007KT 15SM FEW250 11/07 A2992 RMK CI1 CI TR SLP136
02:00
V
12 °C 15 mi - 220° 220° 5 kt METAR CYUL 060600Z 22005KT 15SM FEW250 12/06 A2993 RMK CI1 SLP137
01:00
V
13 °C 15 mi - 210° 210° 6 kt METAR CYUL 060500Z 21006KT 15SM FEW250 13/07 A2994 RMK CI1 CI TR SLP140
00:00
V
13 °C 15 mi - 190° 190° 5 kt METAR CYUL 060400Z 19005KT 15SM FEW250 13/06 A2994 RMK CI1 CI TR SLP141

5. Oktober 2022

Uhrzeit Code Wetter Temp. Sichtweite Wolkendecke Wind METAR/SPECI
23:00
V
14 °C 15 mi - 160° 160° 4 kt METAR CYUL 060300Z 16004KT 15SM FEW250 14/09 A2994 RMK CI1 CI TR SLP143
22:00
V
15 °C 15 mi - 230° 230° 4 kt METAR CYUL 060200Z 23004KT 15SM FEW250 15/08 A2995 RMK CI1 SLP146
21:00
V
15 °C 15 mi - 220° 220° 4 kt METAR CYUL 060100Z 22004KT 15SM SKC 15/08 A2995 RMK SLP146 DENSITY ALT 200FT
20:00
V
16 °C 15 mi - Var Var 2 kt METAR CYUL 060000Z VRB02KT 15SM SKC 16/06 A2995 RMK SLP146 DENSITY ALT 200FT
19:00
V
17 °C 15 mi - Var Var 2 kt METAR CYUL 052300Z VRB02KT 15SM FEW180 FEW240 17/03 A2996 RMK AC1CI1 AC TR CI TR SLP147 DENSITY ALT 400FT
18:00
V
19 °C 30 mi - 230° 230° 4 kt METAR CYUL 052200Z 23004KT 30SM FEW180 FEW240 19/04 A2995 RMK AC1CI1 AC TR CI TR SLP145 DENSITY ALT 600FT
17:00
V
20 °C 30 mi - 230° 230° 5 kt METAR CYUL 052100Z 23005KT 30SM FEW250 20/05 A2995 RMK CI1 CI TR SLP145 DENSITY ALT 700FT
16:00
V
20 °C 30 mi - 190° 190° 5 kt METAR CYUL 052000Z 19005KT 180V240 30SM FEW250 20/06 A2996 RMK CI1 CI TR SLP148 DENSITY ALT 700FT
15:00
V
19 °C 30 mi - 230° 230° 4 kt METAR CYUL 051900Z 23004KT 30SM FEW240 19/06 A2998 RMK CI1 CI TR SLP154 DENSITY ALT 600FT
14:00
V
18 °C 30 mi - 200° 200° 4 kt METAR CYUL 051800Z 20004KT 150V260 30SM FEW240 18/07 A3000 RMK CI1 CI TR SLP160 DENSITY ALT 500FT
13:00
V
17 °C 15 mi - 200° 200° 4 kt METAR CYUL 051700Z 20004KT 170V230 15SM FEW240 17/09 A3002 RMK CI1 CI TR SLP167 DENSITY ALT 300FT
12:00
V
16 °C 15 mi - 280° 280° 4 kt METAR CYUL 051600Z 28004KT 130V300 15SM FEW190 16/05 A3003 RMK CI1 CI TR SLP172 DENSITY ALT 200FT
11:00
V
14 °C 15 mi - Var 000° 0 kt METAR CYUL 051500Z 00000KT 15SM FEW250 14/06 A3005 RMK CI1 CI TR SLP177
10:00
V
12 °C 15 mi - Var Var 2 kt METAR CYUL 051400Z VRB02KT 15SM FEW250 12/06 A3006 RMK CI1 CI TR SLP181
09:00
V
10 °C 30 mi - Var Var 2 kt METAR CYUL 051300Z VRB02KT 30SM FEW250 10/07 A3006 RMK CI1 SLP181
08:00
V
6 °C 20 mi - Var Var 2 kt METAR CYUL 051200Z VRB02KT 20SM FEW250 06/05 A3006 RMK CI2 SLP182
07:00
V
4 °C 15 mi - 310° 310° 2 kt METAR CYUL 051100Z 31002KT 15SM SCT250 04/02 A3007 RMK CI3 SLP184
06:00
V
4 °C 15 mi - Var 000° 0 kt METAR CYUL 051000Z 00000KT 15SM FEW250 04/03 A3006 RMK CI2 SLP181
05:00
V
4 °C 15 mi - Var 000° 0 kt METAR CYUL 050900Z 00000KT 15SM SCT250 04/03 A3005 RMK CI3 SLP178
04:00
V
4 °C 15 mi - Var 000° 0 kt METAR CYUL 050800Z 00000KT 15SM SCT250 04/03 A3005 RMK CI4 SLP180
03:00
V
5 °C 15 mi - Var 000° 0 kt METAR CYUL 050700Z 00000KT 15SM SCT250 05/03 A3006 RMK CI3 SLP181
02:00
V
6 °C 15 mi - 020° 020° 2 kt METAR CYUL 050600Z 02002KT 15SM SCT250 06/03 A3008 RMK CI3 SLP187
01:00
V
6 °C 15 mi - 320° 320° 2 kt METAR CYUL 050500Z 32002KT 15SM FEW250 06/03 A3009 RMK CI2 SLP192
00:00
V
7 °C 15 mi - 330° 330° 2 kt METAR CYUL 050400Z 33002KT 15SM FEW250 07/04 A3010 RMK CI3 SLP195

4. Oktober 2022

Uhrzeit Code Wetter Temp. Sichtweite Wolkendecke Wind METAR/SPECI
23:00
V
10 °C 15 mi - 140° 140° 3 kt METAR CYUL 050300Z 14003KT 15SM SCT250 10/04 A3009 RMK CI3 SLP193
22:00
V
11 °C 15 mi - Var 000° 0 kt METAR CYUL 050200Z 00000KT 15SM SCT250 11/03 A3010 RMK CI3 SLP196
21:00
V
11 °C 15 mi - Var 000° 0 kt METAR CYUL 050100Z 00000KT 15SM SCT250 11/03 A3011 RMK CI4 SLP198
20:00
V
13 °C 15 mi 25.000 ft Var Var 3 kt METAR CYUL 050000Z VRB03KT 15SM BKN250 13/02 A3011 RMK CI6 SLP198
19:00
V
15 °C 15 mi 24.000 ft Var Var 2 kt METAR CYUL 042300Z VRB02KT 15SM BKN240 15/01 A3011 RMK CI5 SLP198
18:00
V
15 °C 15 mi 23.000 ft 260° 260° 4 kt METAR CYUL 042200Z 26004KT 15SM BKN230 15/02 A3010 RMK CI6 SLP197
17:00
V
15 °C 15 mi 24.000 ft 220° 220° 4 kt METAR CYUL 042100Z 22004KT 15SM FEW180 BKN240 15/01 A3011 RMK AC2CI5 SLP200
16:00
V
17 °C 15 mi 24.000 ft 210° 210° 4 kt METAR CYUL 042000Z 21004KT 15SM SCT180 BKN240 17/03 A3012 RMK AC3CI4 SLP203 DENSITY ALT 200FT
15:00
V
16 °C 15 mi 24.000 ft 240° 240° 5 kt METAR CYUL 041900Z 24005KT 220V280 15SM SCT180 BKN240 16/04 A3014 RMK AC3CI4 SLP208
14:00
V
16 °C 15 mi 25.000 ft Var Var 2 kt METAR CYUL 041800Z VRB02KT 15SM SCT180 BKN250 16/04 A3016 RMK AC3CI3 SLP215
13:00
V
15 °C 15 mi 25.000 ft Var Var 3 kt METAR CYUL 041700Z VRB03KT 15SM SCT180 BKN250 15/03 A3018 RMK AC3CI3 SLP223
12:00
V
14 °C 15 mi 25.000 ft Var Var 2 kt METAR CYUL 041600Z VRB02KT 15SM FEW180 BKN250 14/04 A3021 RMK AC2CI3 SLP231
11:00
V
12 °C 15 mi 25.000 ft Var 000° 0 kt METAR CYUL 041500Z 00000KT 15SM FEW180 BKN250 12/05 A3022 RMK AC2CI4 SLP237
Ältere Daten

Wir und Dritte verfolgen dein Internetverhalten auf unserer Website mit Cookies. Wenn du fortfährst, gehen wir davon aus, dass du mit unserer Cookie-Richtlinie einverstanden bist. Mehr erfahren